^^
Your Local Weather - Clay, NY Station Historical Data
Daily Summary for April 30, 2017 Units:  Metric    English   Both
« Previous Day
Next Day »
Daily Weekly Monthly Yearly Custom
  High: Low: Average:
Temperature: 15.3 °C 3.7 °C 8.9 °C
Dew Point: 6 °C -1.5 °C 2.8 °C
Humidity: 81% 53% 66%
Wind Speed: 11.3km/h 0km/h 4.3km/h
Wind Gust: 17.7km/h - -
Wind- - ESE
Pressure: 1024.9 hPa 1012.4 hPa -
Precipitation: 0 mm    
Historical Graphs
 
 
Tabular Data for April 30, 2017
Time Temperature Dew Point Pressure Wind Wind Speed Wind Gust Humidity Rainfall Rate (Hourly) solar
00:04 7.5 °C 1.1 °C 1022.9 hPa Calm     64% 0 mm 0 W/m2
00:10 7.4 °C 1.1 °C 1022.9 hPa Calm     64% 0 mm 0 W/m2
00:16 7.3 °C 1.2 °C 1022.9 hPa Calm     65% 0 mm 0 W/m2
00:22 7.2 °C 1.2 °C 1022.9 hPa Calm     66% 0 mm 0 W/m2
00:28 7 °C 1.1 °C 1022.9 hPa Calm   1.6 km/h 66% 0 mm 0 W/m2
00:33 6.9 °C 1.4 °C 1022.9 hPa Calm   1.6 km/h 68% 0 mm 0 W/m2
00:40 6.7 °C 1.4 °C 1022.6 hPa Calm     69% 0 mm 0 W/m2
00:46 6.4 °C 1.4 °C 1022.6 hPa Calm     70% 0 mm 0 W/m2
00:52 6.3 °C 1.4 °C 1022.9 hPa Calm     71% 0 mm 0 W/m2
00:58 6.1 °C 1.6 °C 1022.9 hPa Calm     73% 0 mm 0 W/m2
01:04 6 °C 1.3 °C 1022.9 hPa Calm     72% 0 mm 0 W/m2
01:10 5.9 °C 1.4 °C 1023.2 hPa Calm     73% 0 mm 0 W/m2
01:16 5.8 °C 1.4 °C 1023.2 hPa Calm     73% 0 mm 0 W/m2
01:22 5.7 °C 1.4 °C 1023.2 hPa Calm     74% 0 mm 0 W/m2
01:28 5.8 °C 1.5 °C 1023.2 hPa Calm     74% 0 mm 0 W/m2
01:34 5.7 °C 1.4 °C 1023.2 hPa Calm     74% 0 mm 0 W/m2
01:40 5.6 °C 1.3 °C 1023.2 hPa Calm     74% 0 mm 0 W/m2
01:46 5.5 °C 1.4 °C 1023.2 hPa Calm   1.6 km/h 75% 0 mm 0 W/m2
01:52 5.4 °C 1.5 °C 1023.2 hPa Calm     76% 0 mm 0 W/m2
01:58 5.3 °C 1.4 °C 1023.2 hPa Calm     76% 0 mm 0 W/m2
02:04 5.2 °C 1.4 °C 1023.2 hPa Calm     77% 0 mm 0 W/m2
02:10 5.1 °C 1.4 °C 1023.2 hPa Calm     77% 0 mm 0 W/m2
02:16 5.1 °C 1.6 °C 1023.2 hPa Calm     78% 0 mm 0 W/m2
02:22 5 °C 1.5 °C 1023.2 hPa Calm   1.6 km/h 78% 0 mm 0 W/m2
02:28 5 °C 1.7 °C 1022.9 hPa WNW 1.6 km/h 1.6 km/h 79% 0 mm 0 W/m2
02:34 5.1 °C 1.7 °C 1022.9 hPa WNW 1.6 km/h 1.6 km/h 79% 0 mm 0 W/m2
02:40 5.1 °C 1.7 °C 1022.9 hPa North 1.6 km/h 4.8 km/h 79% 0 mm 0 W/m2
02:46 5.1 °C 1.7 °C 1022.9 hPa NNE 3.2 km/h 4.8 km/h 79% 0 mm 0 W/m2
02:52 5.1 °C 1.7 °C 1022.9 hPa NNE 3.2 km/h 4.8 km/h 79% 0 mm 0 W/m2
02:58 5 °C 1.7 °C 1022.9 hPa NNE 1.6 km/h 4.8 km/h 79% 0 mm 0 W/m2
03:04 4.9 °C 1.6 °C 1022.9 hPa NNE 1.6 km/h 4.8 km/h 79% 0 mm 0 W/m2
03:10 4.9 °C 1.6 °C 1022.9 hPa NNE 3.2 km/h 4.8 km/h 79% 0 mm 0 W/m2
03:16 4.8 °C 1.5 °C 1022.9 hPa NNE 3.2 km/h 4.8 km/h 79% 0 mm 0 W/m2
03:22 4.8 °C 1.4 °C 1022.9 hPa NNE 3.2 km/h 3.2 km/h 79% 0 mm 0 W/m2
03:28 4.7 °C 1.3 °C 1022.9 hPa NNE 3.2 km/h 3.2 km/h 79% 0 mm 0 W/m2
03:34 4.6 °C 1.3 °C 1022.9 hPa North 1.6 km/h 3.2 km/h 79% 0 mm 0 W/m2
03:40 4.6 °C 1.1 °C 1022.6 hPa North 1.6 km/h 1.6 km/h 78% 0 mm 0 W/m2
03:46 4.4 °C 1.1 °C 1022.9 hPa North 1.6 km/h 3.2 km/h 79% 0 mm 0 W/m2
03:52 4.4 °C 0.9 °C 1022.9 hPa North 1.6 km/h 3.2 km/h 78% 0 mm 0 W/m2
03:58 4.3 °C 1 °C 1022.9 hPa North 1.6 km/h 3.2 km/h 79% 0 mm 0 W/m2
04:04 4.2 °C 0.7 °C 1022.9 hPa North 1.6 km/h 4.8 km/h 78% 0 mm 0 W/m2
04:10 4.1 °C 0.8 °C 1022.9 hPa North 1.6 km/h 3.2 km/h 79% 0 mm 0 W/m2
04:16 4.1 °C 0.6 °C 1022.9 hPa North 1.6 km/h 3.2 km/h 78% 0 mm 0 W/m2
04:22 4 °C 0.7 °C 1022.6 hPa North 1.6 km/h 4.8 km/h 79% 0 mm 0 W/m2
04:28 4 °C 0.5 °C 1022.9 hPa NNE 3.2 km/h 4.8 km/h 78% 0 mm 0 W/m2
04:34 4.1 °C 0.6 °C 1022.9 hPa NNE 1.6 km/h 3.2 km/h 78% 0 mm 0 W/m2
04:40 4.1 °C 0.6 °C 1022.6 hPa Calm   3.2 km/h 78% 0 mm 0 W/m2
04:46 4 °C 0.5 °C 1022.2 hPa Calm   3.2 km/h 78% 0 mm 0 W/m2
04:52 3.9 °C 0.4 °C 1022.6 hPa Calm     78% 0 mm 0 W/m2
04:58 3.9 °C 0.6 °C 1022.9 hPa Calm     79% 0 mm 0 W/m2
05:04 3.9 °C 0.6 °C 1022.9 hPa Calm     79% 0 mm 0 W/m2
05:10 3.8 °C 0.5 °C 1023.2 hPa Calm     79% 0 mm 0 W/m2
05:16 3.8 °C 0.7 °C 1023.2 hPa Calm     80% 0 mm 0 W/m2
05:22 3.7 °C 0.6 °C 1022.9 hPa Calm     80% 0 mm 0 W/m2
05:28 3.7 °C 0.7 °C 1022.9 hPa Calm     81% 0 mm 0 W/m2
05:34 3.8 °C 0.8 °C 1022.9 hPa Calm   4.8 km/h 81% 0 mm 0 W/m2
05:40 4.2 °C 0.2 °C 1022.6 hPa ENE 3.2 km/h 3.2 km/h 75% 0 mm 0 W/m2
05:46 4.7 °C -0.6 °C 1022.6 hPa ENE 3.2 km/h 4.8 km/h 69% 0 mm 0 W/m2
05:52 5 °C -1.1 °C 1022.9 hPa ENE 4.8 km/h 4.8 km/h 65% 0 mm 0 W/m2
05:58 5.2 °C -1.3 °C 1023.2 hPa SSE 3.2 km/h 6.4 km/h 63% 0 mm 5 W/m2
06:04 5.2 °C -1.5 °C 1023.6 hPa ENE 1.6 km/h 3.2 km/h 62% 0 mm 7 W/m2
06:10 5.2 °C -1.5 °C 1023.6 hPa NNE 1.6 km/h 3.2 km/h 62% 0 mm 11 W/m2
06:16 5.3 °C -1.4 °C 1023.6 hPa East 1.6 km/h 6.4 km/h 62% 0 mm 16 W/m2
06:22 5.3 °C -1.4 °C 1023.2 hPa ENE 3.2 km/h 3.2 km/h 62% 0 mm 18 W/m2
06:28 5.4 °C -1.3 °C 1023.2 hPa ENE 3.2 km/h 3.2 km/h 62% 0 mm 18 W/m2
06:34 5.5 °C -1.4 °C 1023.6 hPa SE 4.8 km/h 4.8 km/h 61% 0 mm 18 W/m2
06:40 5.5 °C -1 °C 1023.6 hPa SE 3.2 km/h 3.2 km/h 63% 0 mm 19 W/m2
06:46 5.6 °C -1.2 °C 1023.2 hPa ENE 1.6 km/h 4.8 km/h 62% 0 mm 25 W/m2
06:52 5.5 °C -0.8 °C 1023.2 hPa SE 3.2 km/h 6.4 km/h 64% 0 mm 37 W/m2
06:58 5.6 °C -0.7 °C 1023.6 hPa East 1.6 km/h 9.7 km/h 64% 0 mm 62 W/m2
07:04 5.7 °C -0.8 °C 1023.2 hPa East 1.6 km/h 4.8 km/h 63% 0 mm 84 W/m2
07:10 5.9 °C -0.6 °C 1023.6 hPa ENE 3.2 km/h 3.2 km/h 63% 0 mm 98 W/m2
07:16 6.1 °C -0.7 °C 1023.6 hPa East 3.2 km/h 4.8 km/h 62% 0 mm 102 W/m2
07:22 6.2 °C -0.5 °C 1023.6 hPa NE 1.6 km/h 4.8 km/h 62% 0 mm 88 W/m2
07:28 6.3 °C -0.3 °C 1023.2 hPa ESE 3.2 km/h 4.8 km/h 63% 0 mm 72 W/m2
07:34 6.3 °C 0 °C 1023.6 hPa ENE 3.2 km/h 3.2 km/h 64% 0 mm 91 W/m2
07:40 6.4 °C -0.2 °C 1023.2 hPa SE 3.2 km/h 4.8 km/h 63% 0 mm 111 W/m2
07:46 6.5 °C -0.1 °C 1023.2 hPa SE 3.2 km/h 4.8 km/h 63% 0 mm 107 W/m2
07:52 6.6 °C 0 °C 1023.2 hPa East 3.2 km/h 3.2 km/h 63% 0 mm 128 W/m2
07:58 6.6 °C 0 °C 1022.9 hPa NE 4.8 km/h 8 km/h 63% 0 mm 163 W/m2
08:04 6.6 °C 0 °C 1022.9 hPa NNE 4.8 km/h 8 km/h 63% 0 mm 195 W/m2
08:10 6.7 °C 0.1 °C 1023.2 hPa NNE 4.8 km/h 4.8 km/h 63% 0 mm 149 W/m2
08:16 6.7 °C -0.1 °C 1023.2 hPa ENE 4.8 km/h 9.7 km/h 62% 0 mm 141 W/m2
08:22 6.7 °C -0.1 °C 1022.9 hPa NE 4.8 km/h 8 km/h 62% 0 mm 58 W/m2
08:28 6.6 °C -0.4 °C 1022.9 hPa East 3.2 km/h 8 km/h 61% 0 mm 46 W/m2
08:34 6.4 °C -0.4 °C 1022.9 hPa NE 4.8 km/h 8 km/h 62% 0 mm 35 W/m2
08:40 6.4 °C -0.2 °C 1023.2 hPa NE 4.8 km/h 8 km/h 63% 0 mm 49 W/m2
08:46 6.3 °C 0 °C 1021.9 hPa ENE 6.4 km/h 11.3 km/h 64% 0 mm 72 W/m2
08:52 6.3 °C -0.1 °C 1022.9 hPa North 6.4 km/h 6.4 km/h 64% 0 mm 116 W/m2
08:58 6.3 °C 0.8 °C 1024.9 hPa North 6.4 km/h 12.9 km/h 68% 0 mm 141 W/m2
09:04 6.3 °C 0.4 °C 1024.6 hPa NNW 6.4 km/h 6.4 km/h 66% 0 mm 162 W/m2
09:10 6.4 °C 0.7 °C 1024.9 hPa North 6.4 km/h 6.4 km/h 67% 0 mm 69 W/m2
09:16 6.3 °C 0.4 °C 1024.9 hPa North 6.4 km/h 8 km/h 66% 0 mm 35 W/m2
09:22 6.2 °C 0.1 °C 1024.3 hPa North 8 km/h 14.5 km/h 65% 0 mm 83 W/m2
09:28 6.2 °C 0.1 °C 1023.9 hPa NNE 8 km/h 14.5 km/h 65% 0 mm 165 W/m2
09:34 6.3 °C 0.2 °C 1023.9 hPa NW 6.4 km/h 8 km/h 65% 0 mm 142 W/m2
09:40 6.4 °C -0.1 °C 1023.9 hPa North 6.4 km/h 6.4 km/h 63% 0 mm 165 W/m2
09:46 6.6 °C 0 °C 1023.6 hPa NE 6.4 km/h 6.4 km/h 63% 0 mm 179 W/m2
09:52 6.7 °C 0.1 °C 1022.9 hPa ENE 6.4 km/h 6.4 km/h 63% 0 mm 257 W/m2
09:58 7.1 °C 0.1 °C 1022.9 hPa ENE 6.4 km/h 8 km/h 61% 0 mm 469 W/m2
10:04 7.6 °C 0.8 °C 1022.9 hPa SE 6.4 km/h 6.4 km/h 62% 0 mm 360 W/m2
10:10 7.5 °C 0 °C 1022.2 hPa ENE 4.8 km/h 4.8 km/h 59% 0 mm 139 W/m2
10:16 7.5 °C 0 °C 1022.2 hPa East 6.4 km/h 11.3 km/h 59% 0 mm 149 W/m2
10:22 7.7 °C 0.4 °C 1021.9 hPa ENE 6.4 km/h 6.4 km/h 60% 0 mm 183 W/m2
10:28 7.8 °C 0.6 °C 1021.9 hPa NE 6.4 km/h 6.4 km/h 60% 0 mm 153 W/m2
10:34 8 °C 0.7 °C 1022.2 hPa NW 4.8 km/h 8 km/h 60% 0 mm 155 W/m2
10:40 8.2 °C 0.6 °C 1022.2 hPa ENE 3.2 km/h 3.2 km/h 59% 0 mm 111 W/m2
10:46 8.2 °C 0.4 °C 1022.6 hPa NE 3.2 km/h 4.8 km/h 58% 0 mm 51 W/m2
10:52 8.2 °C 1.1 °C 1022.6 hPa East 4.8 km/h 4.8 km/h 61% 0 mm 121 W/m2
10:58 8.2 °C 1.6 °C 1022.6 hPa NNE 3.2 km/h 6.4 km/h 63% 0 mm 134 W/m2
11:04 8.3 °C 1.2 °C 1023.2 hPa ENE 4.8 km/h 4.8 km/h 61% 0 mm 137 W/m2
11:10 8.4 °C 2 °C 1024.6 hPa WNW 3.2 km/h 3.2 km/h 64% 0 mm 86 W/m2
11:16 8.4 °C 2 °C 1021.9 hPa East 4.8 km/h 4.8 km/h 64% 0 mm 287 W/m2
11:22 8.7 °C 1.8 °C 1022.6 hPa East 3.2 km/h 4.8 km/h 62% 0 mm 137 W/m2
11:28 8.8 °C 1.7 °C 1022.6 hPa SSE 3.2 km/h 4.8 km/h 61% 0 mm 116 W/m2
11:34 8.7 °C 1.8 °C 1024.6 hPa WSW 3.2 km/h 3.2 km/h 62% 0 mm 79 W/m2
11:40 8.7 °C 2.2 °C 1022.9 hPa ESE 1.6 km/h 3.2 km/h 64% 0 mm 199 W/m2
11:46 8.8 °C 1.7 °C 1023.6 hPa SE 1.6 km/h 4.8 km/h 61% 0 mm 165 W/m2
11:52 8.9 °C 2 °C 1022.9 hPa East 1.6 km/h 3.2 km/h 62% 0 mm 246 W/m2
11:58 9.1 °C 2.2 °C 1022.6 hPa ENE 3.2 km/h 4.8 km/h 62% 0 mm 334 W/m2
12:04 9.4 °C 2.3 °C 1021.9 hPa ENE 4.8 km/h 6.4 km/h 61% 0 mm 227 W/m2
12:10 9.6 °C 2.9 °C 1021.2 hPa SE 4.8 km/h 6.4 km/h 63% 0 mm 397 W/m2
12:16 10.3 °C 4.1 °C 1020.9 hPa SE 6.4 km/h 9.7 km/h 65% 0 mm 612 W/m2
12:22 10.4 °C 3.2 °C 1020.9 hPa ESE 8 km/h 11.3 km/h 61% 0 mm 522 W/m2
12:28 10.2 °C 3.7 °C 1020.9 hPa ENE 9.7 km/h 16.1 km/h 64% 0 mm 501 W/m2
12:34 10.8 °C 4.2 °C 1020.5 hPa SE 9.7 km/h 16.1 km/h 64% 0 mm 392 W/m2
12:40 10.7 °C 4.2 °C 1020.2 hPa South 8 km/h 17.7 km/h 64% 0 mm 239 W/m2
12:46 10.4 °C 3.9 °C 1020.2 hPa ESE 9.7 km/h 17.7 km/h 64% 0 mm 148 W/m2
12:52 10.3 °C 4.2 °C 1020.5 hPa ENE 8 km/h 8 km/h 66% 0 mm 125 W/m2
12:58 10.3 °C 4.4 °C 1020.2 hPa SE 4.8 km/h 8 km/h 67% 0 mm 142 W/m2
13:04 10.6 °C 4.4 °C 1019.9 hPa East 4.8 km/h 8 km/h 66% 0 mm 186 W/m2
13:10 10.7 °C 4.6 °C 1019.9 hPa ESE 4.8 km/h 6.4 km/h 66% 0 mm 178 W/m2
13:16 10.8 °C 4.1 °C 1019.9 hPa East 6.4 km/h 8 km/h 63% 0 mm 179 W/m2
13:22 11 °C 4.4 °C 1019.9 hPa East 6.4 km/h 8 km/h 64% 0 mm 239 W/m2
13:28 11.3 °C 4.3 °C 1019.9 hPa SE 6.4 km/h 11.3 km/h 62% 0 mm 171 W/m2
13:34 11.4 °C 4.3 °C 1019.9 hPa ENE 4.8 km/h 4.8 km/h 62% 0 mm 193 W/m2
13:40 11.5 °C 4.2 °C 1019.5 hPa ENE 4.8 km/h 4.8 km/h 61% 0 mm 195 W/m2
13:46 11.7 °C 4.6 °C 1019.5 hPa SSE 4.8 km/h 8 km/h 62% 0 mm 206 W/m2
13:52 11.8 °C 4.6 °C 1019.2 hPa ESE 4.8 km/h 6.4 km/h 61% 0 mm 230 W/m2
13:58 11.9 °C 4.4 °C 1019.2 hPa ESE 6.4 km/h 11.3 km/h 60% 0 mm 288 W/m2
14:04 12.1 °C 4.6 °C 1019.2 hPa East 4.8 km/h 8 km/h 60% 0 mm 269 W/m2
14:10 12.3 °C 4.5 °C 1018.8 hPa SE 4.8 km/h 9.7 km/h 59% 0 mm 234 W/m2
14:16 12.2 °C 4.2 °C 1018.8 hPa East 6.4 km/h 9.7 km/h 58% 0 mm 229 W/m2
14:22 12.3 °C 4.1 °C 1018.8 hPa ESE 4.8 km/h 4.8 km/h 57% 0 mm 229 W/m2
14:28 12.3 °C 4.3 °C 1018.5 hPa East 6.4 km/h 8 km/h 58% 0 mm 260 W/m2
14:34 12.6 °C 4.8 °C 1018.5 hPa ESE 6.4 km/h 8 km/h 59% 0 mm 283 W/m2
14:40 12.9 °C 4.6 °C 1018.8 hPa SE 4.8 km/h 8 km/h 57% 0 mm 276 W/m2
14:46 13 °C 4.7 °C 1018.8 hPa SE 6.4 km/h 11.3 km/h 57% 0 mm 272 W/m2
14:52 13.1 °C 4.4 °C 1018.8 hPa East 8 km/h 9.7 km/h 56% 0 mm 241 W/m2
14:58 13 °C 4.2 °C 1018.8 hPa SSE 4.8 km/h 9.7 km/h 55% 0 mm 137 W/m2
15:04 13 °C 4.2 °C 1018.8 hPa ENE 4.8 km/h 6.4 km/h 55% 0 mm 156 W/m2
15:10 13 °C 4.4 °C 1018.5 hPa ESE 4.8 km/h 4.8 km/h 56% 0 mm 276 W/m2
15:16 13.3 °C 4.5 °C 1018.2 hPa ENE 4.8 km/h 9.7 km/h 55% 0 mm 236 W/m2
15:22 13.4 °C 4.3 °C 1018.2 hPa East 6.4 km/h 9.7 km/h 54% 0 mm 158 W/m2
15:28 13.6 °C 5 °C 1017.8 hPa East 6.4 km/h 9.7 km/h 56% 0 mm 290 W/m2
15:34 13.8 °C 4.9 °C 1017.8 hPa NNW 6.4 km/h 8 km/h 55% 0 mm 313 W/m2
15:40 13.9 °C 5.2 °C 1017.5 hPa SE 8 km/h 8 km/h 56% 0 mm 271 W/m2
15:46 13.9 °C 4.7 °C 1017.8 hPa SSE 6.4 km/h 8 km/h 54% 0 mm 165 W/m2
15:52 13.9 °C 5 °C 1017.8 hPa East 6.4 km/h 6.4 km/h 55% 0 mm 185 W/m2
15:58 14 °C 5.1 °C 1017.2 hPa ENE 4.8 km/h 11.3 km/h 55% 0 mm 248 W/m2
16:04 14.2 °C 5.5 °C 1017.2 hPa SSE 6.4 km/h 11.3 km/h 56% 0 mm 243 W/m2
16:10 14.2 °C 5.1 °C 1017.2 hPa ENE 6.4 km/h 6.4 km/h 54% 0 mm 207 W/m2
16:16 14.3 °C 5.6 °C 1017.2 hPa ESE 6.4 km/h 8 km/h 56% 0 mm 276 W/m2
16:22 14.6 °C 5.7 °C 1017.2 hPa ESE 8 km/h 11.3 km/h 55% 0 mm 334 W/m2
16:28 15.1 °C 5.6 °C 1016.8 hPa ESE 8 km/h 11.3 km/h 53% 0 mm 591 W/m2
16:34 15.1 °C 5.6 °C 1016.5 hPa East 8 km/h 16.1 km/h 53% 0 mm 469 W/m2
16:40 14.9 °C 5.7 °C 1016.8 hPa SSE 8 km/h 8 km/h 54% 0 mm 281 W/m2
16:46 15.3 °C 5.7 °C 1016.5 hPa East 8 km/h 8 km/h 53% 0 mm 258 W/m2
16:52 14.7 °C 6 °C 1016.1 hPa East 8 km/h 11.3 km/h 56% 0 mm 438 W/m2
16:58 14.2 °C 5.6 °C 1016.5 hPa North 6.4 km/h 11.3 km/h 56% 0 mm 237 W/m2
17:04 13.7 °C 5.3 °C 1016.5 hPa ENE 6.4 km/h 11.3 km/h 57% 0 mm 253 W/m2
17:10 13.9 °C 5.8 °C 1015.8 hPa East 6.4 km/h 6.4 km/h 58% 0 mm 410 W/m2
17:16 13.8 °C 5.7 °C 1016.1 hPa SE 6.4 km/h 14.5 km/h 58% 0 mm 531 W/m2
17:22 13.4 °C 5.1 °C 1016.1 hPa SE 9.7 km/h 9.7 km/h 57% 0 mm 454 W/m2
17:28 13.1 °C 5 °C 1016.1 hPa East 11.3 km/h 17.7 km/h 58% 0 mm 236 W/m2
17:34 12.8 °C 5.5 °C 1016.1 hPa ENE 11.3 km/h 14.5 km/h 61% 0 mm 195 W/m2
17:40 12.8 °C 4.9 °C 1016.1 hPa NE 6.4 km/h 16.1 km/h 59% 0 mm 160 W/m2
17:46 12.6 °C 5.3 °C 1015.8 hPa ENE 8 km/h 16.1 km/h 61% 0 mm 204 W/m2
17:52 12.8 °C 5.4 °C 1015.5 hPa ENE 8 km/h 12.9 km/h 61% 0 mm 221 W/m2
17:58 13 °C 5.4 °C 1015.5 hPa NNE 8 km/h 12.9 km/h 60% 0 mm 120 W/m2
18:04 12.9 °C 5.3 °C 1015.5 hPa East 8 km/h 9.7 km/h 60% 0 mm 91 W/m2
18:10 12.9 °C 5.1 °C 1015.8 hPa East 8 km/h 8 km/h 59% 0 mm 90 W/m2
18:16 12.9 °C 5.6 °C 1015.5 hPa ENE 8 km/h 11.3 km/h 61% 0 mm 72 W/m2
18:22 12.8 °C 5.2 °C 1015.5 hPa East 6.4 km/h 11.3 km/h 60% 0 mm 63 W/m2
18:28 12.7 °C 5.6 °C 1015.5 hPa East 6.4 km/h 11.3 km/h 62% 0 mm 74 W/m2
18:34 12.6 °C 5.3 °C 1015.1 hPa East 8 km/h 8 km/h 61% 0 mm 58 W/m2
18:40 12.6 °C 5.4 °C 1015.1 hPa East 8 km/h 11.3 km/h 62% 0 mm 40 W/m2
18:46 12.4 °C 5.6 °C 1015.1 hPa East 6.4 km/h 11.3 km/h 63% 0 mm 32 W/m2
18:52 12.3 °C 5.5 °C 1014.8 hPa East 6.4 km/h 8 km/h 63% 0 mm 28 W/m2
18:58 12.3 °C 5.9 °C 1014.8 hPa ENE 4.8 km/h 8 km/h 65% 0 mm 97 W/m2
19:04 12.4 °C 5.3 °C 1014.8 hPa ENE 4.8 km/h 11.3 km/h 62% 0 mm 63 W/m2
19:10 12.3 °C 5.5 °C 1014.8 hPa ENE 6.4 km/h 6.4 km/h 63% 0 mm 39 W/m2
19:16 12.3 °C 5.4 °C 1015.1 hPa ENE 6.4 km/h 14.5 km/h 63% 0 mm 32 W/m2
19:22 12.2 °C 5.4 °C 1014.4 hPa ENE 6.4 km/h 8 km/h 63% 0 mm 28 W/m2
19:28 12.2 °C 5.6 °C 1014.4 hPa ENE 8 km/h 12.9 km/h 64% 0 mm 25 W/m2
19:34 12.1 °C 5.3 °C 1014.4 hPa ENE 4.8 km/h 6.4 km/h 63% 0 mm 18 W/m2
19:40 12.1 °C 5.1 °C 1014.4 hPa ENE 4.8 km/h 4.8 km/h 62% 0 mm 14 W/m2
19:46 12.1 °C 5.4 °C 1014.4 hPa East 6.4 km/h 8 km/h 64% 0 mm 11 W/m2
19:52 12 °C 5.2 °C 1014.4 hPa ENE 6.4 km/h 12.9 km/h 63% 0 mm 9 W/m2
19:58 11.8 °C 5 °C 1014.4 hPa NE 6.4 km/h 14.5 km/h 63% 0 mm 5 W/m2
20:04 11.7 °C 4.9 °C 1014.4 hPa ENE 6.4 km/h 14.5 km/h 63% 0 mm 0 W/m2
20:10 11.6 °C 5 °C 1014.4 hPa East 6.4 km/h 11.3 km/h 64% 0 mm 0 W/m2
20:16 11.5 °C 4.9 °C 1014.4 hPa ENE 6.4 km/h 11.3 km/h 64% 0 mm 0 W/m2
20:22 11.4 °C 5.1 °C 1014.4 hPa ENE 6.4 km/h 8 km/h 65% 0 mm 0 W/m2
20:28 11.4 °C 5.1 °C 1014.4 hPa East 8 km/h 17.7 km/h 65% 0 mm 0 W/m2
20:36 11.3 °C 5 °C 1014.1 hPa ENE 8 km/h 14.5 km/h 65% 0 mm 0 W/m2
20:42 11.2 °C 4.9 °C 1014.1 hPa ENE 6.4 km/h 6.4 km/h 65% 0 mm 0 W/m2
20:48 11.2 °C 4.8 °C 1014.1 hPa ESE 6.4 km/h 11.3 km/h 65% 0 mm 0 W/m2
20:54 11.2 °C 4.8 °C 1014.4 hPa NNW 6.4 km/h 8 km/h 65% 0 mm 0 W/m2
21:00 11.2 °C 4.8 °C 1014.4 hPa NNE 4.8 km/h 4.8 km/h 65% 0 mm 0 W/m2
21:06 11.2 °C 5.1 °C 1014.4 hPa ENE 4.8 km/h 9.7 km/h 66% 0 mm 0 W/m2
21:12 11.2 °C 5.1 °C 1014.1 hPa ESE 6.4 km/h 8 km/h 66% 0 mm 0 W/m2
21:18 11.1 °C 5 °C 1014.1 hPa East 6.4 km/h 12.9 km/h 66% 0 mm 0 W/m2
21:24 11.1 °C 5 °C 1014.4 hPa East 6.4 km/h 8 km/h 66% 0 mm 0 W/m2
21:30 11.1 °C 5.2 °C 1014.4 hPa NE 4.8 km/h 4.8 km/h 67% 0 mm 0 W/m2
21:36 11.1 °C 5.2 °C 1013.4 hPa East 4.8 km/h 8 km/h 67% 0 mm 0 W/m2
21:42 10.9 °C 5.5 °C 1013.1 hPa East 6.4 km/h 9.7 km/h 69% 0 mm 0 W/m2
21:48 10.7 °C 5.7 °C 1013.4 hPa ENE 6.4 km/h 9.7 km/h 71% 0 mm 0 W/m2
21:54 10.5 °C 5.7 °C 1013.4 hPa ENE 4.8 km/h 12.9 km/h 72% 0 mm 0 W/m2
22:00 10.4 °C 5.8 °C 1013.1 hPa ESE 3.2 km/h 8 km/h 73% 0 mm 0 W/m2
22:06 10.4 °C 5.8 °C 1013.4 hPa ENE 3.2 km/h 8 km/h 73% 0 mm 0 W/m2
22:12 10.4 °C 5.8 °C 1013.4 hPa ENE 1.6 km/h 3.2 km/h 73% 0 mm 0 W/m2
22:18 10.3 °C 5.7 °C 1013.4 hPa ENE 1.6 km/h 3.2 km/h 73% 0 mm 0 W/m2
22:24 10.3 °C 5.7 °C 1013.4 hPa NE 3.2 km/h 4.8 km/h 73% 0 mm 0 W/m2
22:30 10.3 °C 5.8 °C 1013.1 hPa East 3.2 km/h 8 km/h 74% 0 mm 0 W/m2
22:36 10.2 °C 5.8 °C 1013.1 hPa ENE 3.2 km/h 8 km/h 74% 0 mm 0 W/m2
22:42 10.2 °C 5.6 °C 1013.1 hPa East 4.8 km/h 9.7 km/h 73% 0 mm 0 W/m2
22:48 10.2 °C 5.6 °C 1013.1 hPa ENE 6.4 km/h 9.7 km/h 73% 0 mm 0 W/m2
22:54 10.2 °C 5.3 °C 1013.1 hPa ENE 4.8 km/h 6.4 km/h 72% 0 mm 0 W/m2
23:00 10.1 °C 5.7 °C 1013.1 hPa ENE 3.2 km/h 3.2 km/h 74% 0 mm 0 W/m2
23:06 10.1 °C 5.5 °C 1012.8 hPa East 4.8 km/h 4.8 km/h 73% 0 mm 0 W/m2
23:12 10.2 °C 5.3 °C 1012.8 hPa ENE 4.8 km/h 8 km/h 72% 0 mm 0 W/m2
23:18 10.2 °C 5.6 °C 1012.8 hPa ENE 4.8 km/h 8 km/h 73% 0 mm 0 W/m2
23:24 10.2 °C 5.6 °C 1012.8 hPa ENE 3.2 km/h 9.7 km/h 73% 0 mm 0 W/m2
23:30 10.1 °C 5.5 °C 1012.4 hPa East 3.2 km/h 4.8 km/h 73% 0 mm 0 W/m2
23:36 10.1 °C 5.7 °C 1012.4 hPa East 3.2 km/h 4.8 km/h 74% 0 mm 0 W/m2
23:42 10.1 °C 5.6 °C 1012.4 hPa NE 3.2 km/h 4.8 km/h 74% 0 mm 0 W/m2
23:48 10.1 °C 5.7 °C 1012.4 hPa East 4.8 km/h 9.7 km/h 74% 0 mm 0 W/m2
23:54 10.1 °C 5.7 °C 1012.4 hPa East 4.8 km/h 8 km/h 74% 0 mm 0 W/m2
Country Meadow, Clay, NY, USA
Compliments of Weather Underground - 2 mb